Time;durP1;ratioP1;P1;durP2;ratioP2;P2;SDS_P1;SDS_P2;PMS_P1;PMS_P2;Temp;Humidity;BMP_temperature;BMP_pressure;BME280_temperature;BME280_humidity;BME280_pressure;Samples;Min_cycle;Max_cycle;Signal;HPM_P1;HPM_P2
2022/06/01 00:01:48;;;;;;;18.45;12.85;;;;;;;;;;6316562;28;20063;-73
2022/06/01 00:04:51;;;;;;;18.15;12.45;;;;;;;;;;6318652;28;20059;-74
2022/06/01 00:07:53;;;;;;;18.75;12.93;;;;;;;;;;6316545;28;20047;-73
2022/06/01 00:10:57;;;;;;;14.82;11.60;;;;;;;;;;6321231;28;20056;-74
2022/06/01 00:13:58;;;;;;;16.02;12.13;;;;;;;;;;6317929;28;20055;-73
2022/06/01 00:17:00;;;;;;;17.83;12.43;;;;;;;;;;6321282;28;20063;-73
2022/06/01 00:20:03;;;;;;;18.55;11.98;;;;;;;;;;6313982;28;20044;-72
2022/06/01 00:23:06;;;;;;;14.85;11.85;;;;;;;;;;6314115;28;20048;-71
2022/06/01 00:26:08;;;;;;;16.90;11.98;;;;;;;;;;6318774;28;20325;-71
2022/06/01 00:29:09;;;;;;;17.08;12.05;;;;;;;;;;6319787;28;20044;-71
2022/06/01 00:32:14;;;;;;;17.35;11.95;;;;;;;;;;6318908;28;21613;-71
2022/06/01 00:35:19;;;;;;;15.90;11.70;;;;;;;;;;6315356;28;20066;-71
2022/06/01 00:38:21;;;;;;;17.88;12.75;;;;;;;;;;6315565;28;20059;-71
2022/06/01 00:41:22;;;;;;;15.70;12.40;;;;;;;;;;6315721;28;20055;-71
2022/06/01 00:44:24;;;;;;;15.98;12.70;;;;;;;;;;6314130;28;20325;-71
2022/06/01 00:47:27;;;;;;;15.70;12.38;;;;;;;;;;6316990;28;20652;-71
2022/06/01 00:50:32;;;;;;;17.03;12.73;;;;;;;;;;6314932;28;20288;-71
2022/06/01 00:53:36;;;;;;;16.77;11.95;;;;;;;;;;6313297;28;20574;-72
2022/06/01 00:56:41;;;;;;;15.55;12.20;;;;;;;;;;6317391;28;20047;-71
2022/06/01 00:59:44;;;;;;;16.25;11.38;;;;;;;;;;6317586;28;20090;-71
2022/06/01 01:02:47;;;;;;;17.42;11.85;;;;;;;;;;6316676;28;20060;-72
2022/06/01 01:05:54;;;;;;;13.98;11.88;;;;;;;;;;6313204;28;20056;-72
2022/06/01 01:08:56;;;;;;;20.10;12.70;;;;;;;;;;6314325;28;20052;-71
2022/06/01 01:12:01;;;;;;;16.92;11.95;;;;;;;;;;6317885;28;20150;-71
2022/06/01 01:15:02;;;;;;;15.30;11.63;;;;;;;;;;6319621;28;20326;-74
2022/06/01 01:18:12;;;;;;;16.92;12.13;;;;;;;;;;6314700;28;20048;-74
2022/06/01 01:21:24;;;;;;;19.15;12.57;;;;;;;;;;6316105;28;20234;-74
2022/06/01 01:24:30;;;;;;;17.33;12.70;;;;;;;;;;6314095;28;20388;-76
2022/06/01 01:27:33;;;;;;;15.13;12.25;;;;;;;;;;6314745;28;20060;-74
2022/06/01 01:30:57;;;;;;;16.75;12.57;;;;;;;;;;6313420;28;20041;-75
2022/06/01 01:33:59;;;;;;;15.30;12.07;;;;;;;;;;6317103;28;21056;-76
2022/06/01 01:37:04;;;;;;;15.85;11.75;;;;;;;;;;6313188;28;20057;-74
2022/06/01 01:40:07;;;;;;;15.48;12.32;;;;;;;;;;6311843;28;20120;-75
2022/06/01 01:43:11;;;;;;;17.27;12.60;;;;;;;;;;6317377;28;20347;-75
2022/06/01 01:46:13;;;;;;;16.30;12.38;;;;;;;;;;6313775;28;20058;-73
2022/06/01 01:49:15;;;;;;;16.77;11.35;;;;;;;;;;6314248;28;20286;-72
2022/06/01 01:52:19;;;;;;;16.73;11.98;;;;;;;;;;6315694;28;20089;-75
2022/06/01 01:55:28;;;;;;;15.95;11.10;;;;;;;;;;6314138;27;20063;-74
2022/06/01 01:58:41;;;;;;;14.82;10.70;;;;;;;;;;6320471;28;20237;-76
2022/06/01 02:01:48;;;;;;;15.93;11.55;;;;;;;;;;6314823;28;20059;-74
2022/06/01 02:08:20;;;;;;;13.50;10.80;;;;;;;;;;6313390;28;20040;-74
2022/06/01 02:14:50;;;;;;;13.25;9.82;;;;;;;;;;6315406;28;20055;-74
2022/06/01 02:17:54;;;;;;;13.07;9.52;;;;;;;;;;6315383;28;20059;-73
2022/06/01 02:21:00;;;;;;;14.20;9.63;;;;;;;;;;6316333;28;20062;-73
2022/06/01 02:24:02;;;;;;;13.38;9.07;;;;;;;;;;6319511;28;20323;-72
2022/06/01 02:27:05;;;;;;;12.63;9.82;;;;;;;;;;6315045;28;20457;-74
2022/06/01 02:30:12;;;;;;;12.63;9.68;;;;;;;;;;6316558;28;20052;-73
2022/06/01 02:33:18;;;;;;;11.02;8.55;;;;;;;;;;6316425;27;20119;-74
2022/06/01 02:36:21;;;;;;;14.48;9.77;;;;;;;;;;6321677;28;20277;-75
2022/06/01 02:39:23;;;;;;;12.40;9.18;;;;;;;;;;6322053;28;20122;-73
2022/06/01 02:42:28;;;;;;;10.15;8.65;;;;;;;;;;6315452;28;20048;-73
2022/06/01 02:45:31;;;;;;;13.15;10.00;;;;;;;;;;6312871;28;20106;-70
2022/06/01 02:48:33;;;;;;;11.30;8.65;;;;;;;;;;6312700;28;20044;-74
2022/06/01 02:51:34;;;;;;;12.00;9.73;;;;;;;;;;6316129;27;20049;-72
2022/06/01 02:54:36;;;;;;;12.45;9.50;;;;;;;;;;6317123;28;20346;-72
2022/06/01 02:57:38;;;;;;;12.57;9.38;;;;;;;;;;6315328;28;20242;-71
2022/06/01 03:00:41;;;;;;;13.05;9.70;;;;;;;;;;6315125;28;20068;-73
2022/06/01 03:03:43;;;;;;;12.15;8.95;;;;;;;;;;6313217;28;20325;-72
2022/06/01 03:06:45;;;;;;;14.98;9.43;;;;;;;;;;6316148;27;20044;-72
2022/06/01 03:09:46;;;;;;;13.13;9.65;;;;;;;;;;6317894;28;20046;-71
2022/06/01 03:12:48;;;;;;;13.00;9.70;;;;;;;;;;6318040;28;20049;-72
2022/06/01 03:15:53;;;;;;;15.52;9.73;;;;;;;;;;6315960;27;20044;-72
2022/06/01 03:18:54;;;;;;;11.27;8.90;;;;;;;;;;6323225;28;20052;-73
2022/06/01 03:21:56;;;;;;;11.27;8.93;;;;;;;;;;6317528;28;20428;-71
2022/06/01 03:24:58;;;;;;;12.65;9.90;;;;;;;;;;6318149;28;20273;-71
2022/06/01 03:28:00;;;;;;;12.90;9.50;;;;;;;;;;6318088;28;20110;-72
2022/06/01 03:31:05;;;;;;;13.60;9.43;;;;;;;;;;6318024;28;20117;-76
2022/06/01 03:34:08;;;;;;;12.40;9.27;;;;;;;;;;6316671;28;20052;-75
2022/06/01 03:37:09;;;;;;;13.30;9.57;;;;;;;;;;6314630;28;20071;-76
2022/06/01 03:40:12;;;;;;;12.75;9.95;;;;;;;;;;6323456;27;20048;-76
2022/06/01 03:43:14;;;;;;;13.85;9.80;;;;;;;;;;6314973;28;20056;-74
2022/06/01 03:46:17;;;;;;;12.10;9.77;;;;;;;;;;6318966;27;20315;-74
2022/06/01 03:49:18;;;;;;;13.38;9.50;;;;;;;;;;6317241;27;20052;-74
2022/06/01 03:52:20;;;;;;;12.32;9.05;;;;;;;;;;6321214;28;20055;-74
2022/06/01 03:55:22;;;;;;;12.70;9.63;;;;;;;;;;6317212;27;20066;-75
2022/06/01 03:58:25;;;;;;;15.23;9.50;;;;;;;;;;6318199;28;20055;-74
2022/06/01 04:01:28;;;;;;;12.32;9.13;;;;;;;;;;6318628;28;20342;-75
2022/06/01 04:04:30;;;;;;;14.38;10.18;;;;;;;;;;6317906;28;20044;-74
2022/06/01 04:07:31;;;;;;;15.98;9.95;;;;;;;;;;6313474;28;20062;-75
2022/06/01 04:10:34;;;;;;;11.25;8.90;;;;;;;;;;6319180;28;20043;-74
2022/06/01 04:13:36;;;;;;;13.32;9.88;;;;;;;;;;6316494;28;20046;-74
2022/06/01 04:16:39;;;;;;;15.30;10.00;;;;;;;;;;6317997;28;20218;-75
2022/06/01 04:19:41;;;;;;;13.20;11.15;;;;;;;;;;6318188;28;20102;-75
2022/06/01 04:22:44;;;;;;;12.10;10.00;;;;;;;;;;6315675;28;20097;-74
2022/06/01 04:25:46;;;;;;;14.43;9.48;;;;;;;;;;6312938;28;20051;-75
2022/06/01 04:28:48;;;;;;;12.30;9.20;;;;;;;;;;6315117;28;20076;-75
2022/06/01 04:31:58;;;;;;;13.65;10.07;;;;;;;;;;6321378;27;20048;-74
2022/06/01 04:35:00;;;;;;;15.10;9.70;;;;;;;;;;6317581;28;20056;-74
2022/06/01 04:38:13;;;;;;;12.18;9.63;;;;;;;;;;6316096;27;20041;-73
2022/06/01 04:41:15;;;;;;;14.82;9.52;;;;;;;;;;6319897;27;20272;-75
2022/06/01 04:44:17;;;;;;;12.85;9.60;;;;;;;;;;6319166;28;20056;-76
2022/06/01 04:47:20;;;;;;;15.32;10.50;;;;;;;;;;6317327;28;20052;-74
2022/06/01 04:50:21;;;;;;;14.57;10.55;;;;;;;;;;6320792;28;20052;-76
2022/06/01 04:53:24;;;;;;;15.13;10.07;;;;;;;;;;6319103;28;20123;-74
2022/06/01 04:56:25;;;;;;;16.33;9.75;;;;;;;;;;6318920;28;20040;-75
2022/06/01 04:59:27;;;;;;;15.38;9.43;;;;;;;;;;6315086;28;20056;-75
2022/06/01 05:02:30;;;;;;;15.32;9.88;;;;;;;;;;6314065;28;20100;-75
2022/06/01 05:05:34;;;;;;;11.73;10.48;;;;;;;;;;6317171;28;20056;-74
2022/06/01 05:08:36;;;;;;;16.27;11.05;;;;;;;;;;6313154;28;20047;-71
2022/06/01 05:11:38;;;;;;;16.02;11.27;;;;;;;;;;6314189;28;20044;-70
2022/06/01 05:14:39;;;;;;;19.13;12.52;;;;;;;;;;6317249;28;20070;-70
2022/06/01 05:17:42;;;;;;;17.38;12.45;;;;;;;;;;6318344;28;20052;-71
2022/06/01 05:20:44;;;;;;;17.05;12.13;;;;;;;;;;6318700;28;20093;-74
2022/06/01 05:23:46;;;;;;;17.40;13.15;;;;;;;;;;6317091;27;20040;-73
2022/06/01 05:26:47;;;;;;;19.50;13.75;;;;;;;;;;6317898;28;20052;-73
2022/06/01 05:29:50;;;;;;;17.83;14.10;;;;;;;;;;6314665;28;20133;-74
2022/06/01 05:32:53;;;;;;;19.90;14.05;;;;;;;;;;6315511;28;20044;-74
2022/06/01 05:35:55;;;;;;;21.40;14.20;;;;;;;;;;6311970;28;20048;-74
2022/06/01 05:38:57;;;;;;;15.50;13.80;;;;;;;;;;6318193;28;20805;-74
2022/06/01 05:41:58;;;;;;;18.20;14.98;;;;;;;;;;6317682;28;20227;-74
2022/06/01 05:45:00;;;;;;;18.35;14.13;;;;;;;;;;6318472;28;20276;-73
2022/06/01 05:48:03;;;;;;;17.45;14.45;;;;;;;;;;6312978;28;20053;-73
2022/06/01 05:51:05;;;;;;;20.13;15.80;;;;;;;;;;6314103;28;20361;-72
2022/06/01 05:54:07;;;;;;;23.48;17.10;;;;;;;;;;6311190;28;20503;-72
2022/06/01 05:57:09;;;;;;;23.55;16.25;;;;;;;;;;6314986;28;20082;-72
2022/06/01 06:00:12;;;;;;;22.45;16.95;;;;;;;;;;6312200;28;20044;-70
2022/06/01 06:03:16;;;;;;;22.45;16.35;;;;;;;;;;6311451;28;20052;-70
2022/06/01 06:06:17;;;;;;;23.15;16.17;;;;;;;;;;6311939;28;20235;-70
2022/06/01 06:09:24;;;;;;;19.88;16.08;;;;;;;;;;6315975;27;20113;-70
2022/06/01 06:12:26;;;;;;;23.38;17.55;;;;;;;;;;6311684;28;20048;-70
2022/06/01 06:15:27;;;;;;;19.98;16.45;;;;;;;;;;6320181;28;20052;-70
2022/06/01 06:18:31;;;;;;;22.27;16.48;;;;;;;;;;6312540;28;20070;-70
2022/06/01 06:21:32;;;;;;;21.33;17.63;;;;;;;;;;6311972;28;20120;-68
2022/06/01 06:24:34;;;;;;;23.45;18.08;;;;;;;;;;6317947;28;20040;-67
2022/06/01 06:27:36;;;;;;;24.67;17.77;;;;;;;;;;6313022;28;20101;-69
2022/06/01 06:30:39;;;;;;;27.35;17.45;;;;;;;;;;6316094;28;20048;-67
2022/06/01 06:33:42;;;;;;;24.85;17.10;;;;;;;;;;6317590;28;20052;-68
2022/06/01 06:36:44;;;;;;;22.42;16.02;;;;;;;;;;6321833;28;20051;-68
2022/06/01 06:39:46;;;;;;;24.20;17.02;;;;;;;;;;6317477;28;20049;-69
2022/06/01 06:42:48;;;;;;;23.05;17.88;;;;;;;;;;6317503;28;20056;-68
2022/06/01 06:45:50;;;;;;;23.67;16.73;;;;;;;;;;6317028;28;20051;-68
2022/06/01 06:48:53;;;;;;;24.55;17.00;;;;;;;;;;6322685;28;20068;-68
2022/06/01 06:51:55;;;;;;;25.80;18.73;;;;;;;;;;6319378;28;20044;-69
2022/06/01 06:54:56;;;;;;;24.58;16.92;;;;;;;;;;6318818;28;20114;-69
2022/06/01 06:57:58;;;;;;;23.00;16.52;;;;;;;;;;6320973;28;20049;-68
2022/06/01 07:01:00;;;;;;;24.75;16.83;;;;;;;;;;6315321;28;20239;-67
2022/06/01 07:04:03;;;;;;;21.60;16.33;;;;;;;;;;6318823;28;20040;-68
2022/06/01 07:07:05;;;;;;;23.17;16.27;;;;;;;;;;6318206;28;20055;-67
2022/06/01 07:10:08;;;;;;;23.73;17.45;;;;;;;;;;6319081;28;20047;-68
2022/06/01 07:13:10;;;;;;;25.00;17.13;;;;;;;;;;6319955;28;20047;-68
2022/06/01 07:16:13;;;;;;;26.00;18.80;;;;;;;;;;6318498;28;20044;-68
2022/06/01 07:19:16;;;;;;;24.73;17.48;;;;;;;;;;6322829;28;20044;-68
2022/06/01 07:22:17;;;;;;;28.70;18.65;;;;;;;;;;6318827;28;20055;-68
2022/06/01 07:25:19;;;;;;;21.63;18.20;;;;;;;;;;6317481;27;20040;-69
2022/06/01 07:28:22;;;;;;;31.10;19.33;;;;;;;;;;6319326;27;20047;-68
2022/06/01 07:31:24;;;;;;;;;;;;;;;;;;6316135;27;20049;-68
2022/06/01 07:34:27;;;;;;;26.60;18.38;;;;;;;;;;6321785;27;19930;-69
2022/06/01 07:44:07;;;;;;;28.63;20.38;;;;;;;;;;6317456;28;20040;-69
2022/06/01 07:47:10;;;;;;;24.83;20.67;;;;;;;;;;6318882;28;20306;-69
2022/06/01 07:50:13;;;;;;;27.23;21.23;;;;;;;;;;6319846;28;20052;-69
2022/06/01 07:53:16;;;;;;;29.42;22.40;;;;;;;;;;6319264;27;20384;-68
2022/06/01 07:56:18;;;;;;;27.48;20.65;;;;;;;;;;6314848;28;20044;-69
2022/06/01 07:59:19;;;;;;;27.25;21.00;;;;;;;;;;6319620;28;20178;-69
2022/06/01 08:02:22;;;;;;;27.88;21.40;;;;;;;;;;6320536;28;20118;-69
2022/06/01 08:05:26;;;;;;;25.77;22.13;;;;;;;;;;6322975;28;20063;-70
2022/06/01 08:08:27;;;;;;;31.45;22.55;;;;;;;;;;6315800;27;20056;-70
2022/06/01 08:14:44;;;;;;;29.20;22.40;;;;;;;;;;6316417;28;20105;-69
2022/06/01 08:17:47;;;;;;;34.80;24.23;;;;;;;;;;6317027;28;20059;-68
2022/06/01 08:20:51;;;;;;;28.40;23.35;;;;;;;;;;6320019;28;20105;-69
2022/06/01 08:23:53;;;;;;;28.95;22.40;;;;;;;;;;6318238;28;20097;-69
2022/06/01 08:26:56;;;;;;;30.95;24.55;;;;;;;;;;6321826;28;20053;-69
2022/06/01 08:29:57;;;;;;;29.73;23.35;;;;;;;;;;6318447;28;20093;-69
2022/06/01 08:33:00;;;;;;;26.35;21.48;;;;;;;;;;6321439;28;20059;-69
2022/06/01 08:36:03;;;;;;;28.10;22.47;;;;;;;;;;6319033;28;20138;-68
2022/06/01 08:39:05;;;;;;;26.13;22.65;;;;;;;;;;6317390;28;20052;-69
2022/06/01 08:42:07;;;;;;;31.00;24.17;;;;;;;;;;6316052;28;20081;-69
2022/06/01 08:45:09;;;;;;;34.20;22.87;;;;;;;;;;6316477;28;20060;-67
2022/06/01 08:48:15;;;;;;;31.42;22.77;;;;;;;;;;6314192;28;20052;-69
2022/06/01 08:51:21;;;;;;;26.17;20.80;;;;;;;;;;6316371;28;20056;-69
2022/06/01 08:54:23;;;;;;;29.52;21.95;;;;;;;;;;6313167;28;20053;-69
2022/06/01 08:57:28;;;;;;;30.00;23.00;;;;;;;;;;6318463;28;20052;-68
2022/06/01 09:00:33;;;;;;;26.80;22.45;;;;;;;;;;6316233;28;20137;-68
2022/06/01 09:03:40;;;;;;;31.60;23.30;;;;;;;;;;6318535;28;20323;-69
2022/06/01 09:06:45;;;;;;;27.25;22.63;;;;;;;;;;6320467;28;20333;-69
2022/06/01 09:10:05;;;;;;;27.70;23.52;;;;;;;;;;6315520;28;20052;-68
2022/06/01 09:13:10;;;;;;;28.40;22.90;;;;;;;;;;6317061;28;20101;-68
2022/06/01 09:16:15;;;;;;;28.75;22.55;;;;;;;;;;6315020;27;20071;-68
2022/06/01 09:19:22;;;;;;;27.45;21.08;;;;;;;;;;6315185;27;20129;-69
2022/06/01 09:22:37;;;;;;;29.20;23.70;;;;;;;;;;6316418;28;20281;-68
2022/06/01 09:25:39;;;;;;;32.58;24.63;;;;;;;;;;6316505;28;20051;-68
2022/06/01 09:28:45;;;;;;;31.15;23.35;;;;;;;;;;6319598;27;20115;-69
2022/06/01 09:31:49;;;;;;;29.42;21.08;;;;;;;;;;6319817;28;21029;-69
2022/06/01 09:34:51;;;;;;;30.92;26.17;;;;;;;;;;6322684;28;20097;-68
2022/06/01 09:37:54;;;;;;;29.65;23.45;;;;;;;;;;6320168;28;20059;-69
2022/06/01 09:41:04;;;;;;;30.48;23.73;;;;;;;;;;6320080;28;20323;-69
2022/06/01 09:44:08;;;;;;;27.08;20.00;;;;;;;;;;6319460;28;20044;-69
2022/06/01 09:47:10;;;;;;;26.55;21.30;;;;;;;;;;6320564;28;20236;-69
2022/06/01 09:50:25;;;;;;;28.90;23.63;;;;;;;;;;6317440;28;20048;-69
2022/06/01 09:53:33;;;;;;;25.20;22.40;;;;;;;;;;6319639;28;20051;-69
2022/06/01 09:56:40;;;;;;;22.83;18.25;;;;;;;;;;6324315;28;20043;-69
2022/06/01 10:06:31;;;;;;;23.25;19.10;;;;;;;;;;6319972;28;19931;-69
2022/06/01 10:09:36;;;;;;;22.48;19.90;;;;;;;;;;6313413;28;20048;-69
2022/06/01 10:12:43;;;;;;;28.23;22.15;;;;;;;;;;6313126;27;20040;-69
2022/06/01 10:15:48;;;;;;;23.02;19.20;;;;;;;;;;6319827;28;20052;-69
2022/06/01 10:18:52;;;;;;;28.60;22.27;;;;;;;;;;6314292;28;20074;-69
2022/06/01 10:21:57;;;;;;;24.02;20.35;;;;;;;;;;6320580;28;20127;-69
2022/06/01 10:25:05;;;;;;;27.55;23.25;;;;;;;;;;6321145;27;20056;-71
2022/06/01 10:28:10;;;;;;;25.80;21.45;;;;;;;;;;6320926;28;20039;-69
2022/06/01 10:31:22;;;;;;;28.45;24.35;;;;;;;;;;6323839;28;20072;-68
2022/06/01 10:34:28;;;;;;;30.75;23.52;;;;;;;;;;6325726;28;20090;-69
2022/06/01 10:37:34;;;;;;;27.73;21.08;;;;;;;;;;6323520;28;20102;-69
2022/06/01 10:40:40;;;;;;;23.02;18.38;;;;;;;;;;6324176;28;20193;-69
2022/06/01 10:43:47;;;;;;;24.73;19.30;;;;;;;;;;6319408;28;20082;-69
2022/06/01 10:46:52;;;;;;;19.70;17.33;;;;;;;;;;6320571;28;20097;-69
2022/06/01 10:49:57;;;;;;;19.48;16.25;;;;;;;;;;6318926;28;20083;-69
2022/06/01 10:53:03;;;;;;;18.50;15.48;;;;;;;;;;6318049;28;20047;-70
2022/06/01 10:56:07;;;;;;;14.68;13.15;;;;;;;;;;6318425;28;20059;-69
2022/06/01 10:59:14;;;;;;;16.45;12.00;;;;;;;;;;6316979;28;20056;-69
2022/06/01 11:02:26;;;;;;;15.27;13.50;;;;;;;;;;6318437;28;20376;-69
2022/06/01 11:05:33;;;;;;;14.95;12.95;;;;;;;;;;6317688;28;20053;-70
2022/06/01 11:08:46;;;;;;;13.20;11.80;;;;;;;;;;6317925;28;20240;-69
2022/06/01 11:11:57;;;;;;;16.17;14.35;;;;;;;;;;6317181;28;20119;-69
2022/06/01 11:15:09;;;;;;;13.13;10.50;;;;;;;;;;6320722;28;20062;-69
2022/06/01 11:18:33;;;;;;;12.73;11.43;;;;;;;;;;6317573;28;20078;-68
2022/06/01 11:21:41;;;;;;;8.68;7.88;;;;;;;;;;6315022;28;20052;-69
2022/06/01 11:24:55;;;;;;;16.40;12.85;;;;;;;;;;6316908;28;20124;-69
2022/06/01 11:28:09;;;;;;;13.73;10.93;;;;;;;;;;6316652;28;20137;-69
2022/06/01 11:31:18;;;;;;;14.02;10.90;;;;;;;;;;6315464;28;20114;-69
2022/06/01 11:34:24;;;;;;;12.98;10.70;;;;;;;;;;6319386;28;20044;-69
2022/06/01 11:37:29;;;;;;;11.25;10.05;;;;;;;;;;6317775;28;20060;-70
2022/06/01 11:40:44;;;;;;;14.40;11.57;;;;;;;;;;6317727;28;20148;-69
2022/06/01 11:43:52;;;;;;;8.38;7.68;;;;;;;;;;6314597;28;20138;-70
2022/06/01 11:46:56;;;;;;;11.00;8.45;;;;;;;;;;6316226;28;20253;-69
2022/06/01 11:50:07;;;;;;;11.88;8.68;;;;;;;;;;6315423;28;20452;-70
2022/06/01 11:53:12;;;;;;;9.32;7.22;;;;;;;;;;6318750;27;20066;-70
2022/06/01 11:56:24;;;;;;;10.65;8.93;;;;;;;;;;6316108;27;20060;-70
2022/06/01 11:59:37;;;;;;;10.98;8.93;;;;;;;;;;6318907;28;20873;-70
2022/06/01 12:02:44;;;;;;;7.18;5.88;;;;;;;;;;6315724;28;20048;-70
2022/06/01 12:06:00;;;;;;;6.68;6.07;;;;;;;;;;6314336;28;20049;-70
2022/06/01 12:09:04;;;;;;;7.38;6.18;;;;;;;;;;6316908;28;20050;-70
2022/06/01 12:12:07;;;;;;;7.07;6.03;;;;;;;;;;6320713;28;20052;-69
2022/06/01 12:15:18;;;;;;;6.30;5.70;;;;;;;;;;6315558;28;20327;-70
2022/06/01 12:18:29;;;;;;;7.78;5.35;;;;;;;;;;6317506;28;20040;-69
2022/06/01 12:21:36;;;;;;;9.75;6.07;;;;;;;;;;6316350;27;20058;-69
2022/06/01 12:31:36;;;;;;;16.90;14.27;;;;;;;;;;6315340;28;20053;-70
2022/06/01 12:34:44;;;;;;;11.05;5.43;;;;;;;;;;6316433;28;20058;-69
2022/06/01 12:37:49;;;;;;;4.82;4.28;;;;;;;;;;6315407;28;20052;-69
2022/06/01 12:41:02;;;;;;;7.13;5.03;;;;;;;;;;6316757;28;20121;-69
2022/06/01 12:44:06;;;;;;;8.70;4.85;;;;;;;;;;6315892;28;20106;-69
2022/06/01 12:47:22;;;;;;;6.50;4.45;;;;;;;;;;6318710;28;20215;-69
2022/06/01 12:50:28;;;;;;;4.63;4.18;;;;;;;;;;6323217;28;20040;-68
2022/06/01 12:53:42;;;;;;;5.50;3.72;;;;;;;;;;6321139;28;20063;-69
2022/06/01 12:56:48;;;;;;;6.78;3.80;;;;;;;;;;6318776;28;20059;-69
2022/06/01 12:59:56;;;;;;;6.68;3.60;;;;;;;;;;6318322;28;20075;-69
2022/06/01 13:03:00;;;;;;;4.85;4.00;;;;;;;;;;6317091;28;20052;-69
2022/06/01 13:06:04;;;;;;;7.82;3.83;;;;;;;;;;6320405;28;20140;-69
2022/06/01 13:09:08;;;;;;;6.53;4.40;;;;;;;;;;6315442;28;20071;-69
2022/06/01 13:12:16;;;;;;;7.03;4.10;;;;;;;;;;6315679;28;20067;-69
2022/06/01 13:15:23;;;;;;;6.55;3.97;;;;;;;;;;6319904;28;20051;-69
2022/06/01 13:18:33;;;;;;;4.82;3.72;;;;;;;;;;6321242;28;20599;-68
2022/06/01 13:21:37;;;;;;;4.25;3.20;;;;;;;;;;6321591;28;20048;-68
2022/06/01 13:24:42;;;;;;;6.97;3.58;;;;;;;;;;6324601;28;20055;-69
2022/06/01 13:27:44;;;;;;;8.70;4.00;;;;;;;;;;6317459;28;20054;-68
2022/06/01 13:30:46;;;;;;;8.38;4.13;;;;;;;;;;6317445;28;20055;-69
2022/06/01 13:33:49;;;;;;;10.20;4.18;;;;;;;;;;6321151;28;20335;-69
2022/06/01 13:36:52;;;;;;;4.45;3.38;;;;;;;;;;6326427;28;20078;-69
2022/06/01 13:39:56;;;;;;;6.15;3.28;;;;;;;;;;6318242;28;20052;-69
2022/06/01 13:43:04;;;;;;;4.30;3.88;;;;;;;;;;6320747;28;20051;-69
2022/06/01 13:46:07;;;;;;;5.15;2.97;;;;;;;;;;6319045;28;20052;-69
2022/06/01 13:49:17;;;;;;;4.63;3.35;;;;;;;;;;6320876;28;20052;-69
2022/06/01 13:52:19;;;;;;;6.15;4.32;;;;;;;;;;6316981;28;20037;-70
2022/06/01 13:55:23;;;;;;;5.00;4.32;;;;;;;;;;6318608;28;20052;-70
2022/06/01 13:58:32;;;;;;;8.40;3.97;;;;;;;;;;6322714;28;20112;-69
2022/06/01 14:01:36;;;;;;;4.88;3.50;;;;;;;;;;6316892;28;20393;-68
2022/06/01 14:04:44;;;;;;;7.10;3.88;;;;;;;;;;6319622;28;20334;-69
2022/06/01 14:07:50;;;;;;;5.55;3.78;;;;;;;;;;6321362;28;20044;-69
2022/06/01 14:10:53;;;;;;;4.53;3.45;;;;;;;;;;6322064;28;20054;-73
2022/06/01 14:13:55;;;;;;;4.50;3.50;;;;;;;;;;6320037;28;20255;-72
2022/06/01 14:16:58;;;;;;;3.22;2.92;;;;;;;;;;6318985;28;20056;-72
2022/06/01 14:20:01;;;;;;;5.07;3.75;;;;;;;;;;6318593;28;20040;-71
2022/06/01 14:23:03;;;;;;;22.02;12.10;;;;;;;;;;6317167;28;20048;-72
2022/06/01 14:29:24;;;;;;;7.85;4.30;;;;;;;;;;6322811;28;20051;-71
2022/06/01 14:32:26;;;;;;;37.55;28.15;;;;;;;;;;6322605;28;20105;-72
2022/06/01 14:35:31;;;;;;;7.00;4.77;;;;;;;;;;6317883;28;20056;-72
2022/06/01 14:38:33;;;;;;;20.73;14.55;;;;;;;;;;6321110;28;20040;-72
2022/06/01 14:41:38;;;;;;;4.00;3.67;;;;;;;;;;6316905;28;20097;-70
2022/06/01 14:44:40;;;;;;;9.40;3.60;;;;;;;;;;6311450;28;20053;-70
2022/06/01 14:47:41;;;;;;;11.35;3.97;;;;;;;;;;6316486;28;20094;-71
2022/06/01 14:50:44;;;;;;;6.22;3.75;;;;;;;;;;6320978;28;20061;-71
2022/06/01 14:53:46;;;;;;;8.18;3.40;;;;;;;;;;6317945;28;20047;-71
2022/06/01 14:56:48;;;;;;;9.18;4.78;;;;;;;;;;6318507;28;20044;-70
2022/06/01 14:59:49;;;;;;;6.97;3.10;;;;;;;;;;6315733;28;20258;-70
2022/06/01 15:02:54;;;;;;;7.45;3.28;;;;;;;;;;6318319;28;20143;-70
2022/06/01 15:05:57;;;;;;;4.70;3.38;;;;;;;;;;6324838;28;20052;-70
2022/06/01 15:08:58;;;;;;;13.65;3.50;;;;;;;;;;6324145;28;20135;-70
2022/06/01 15:12:00;;;;;;;6.93;4.20;;;;;;;;;;6323489;28;20049;-70
2022/06/01 15:15:02;;;;;;;6.15;3.63;;;;;;;;;;6322523;28;20104;-71
2022/06/01 15:18:03;;;;;;;9.70;3.58;;;;;;;;;;6321269;28;20215;-72
2022/06/01 15:21:07;;;;;;;15.45;3.42;;;;;;;;;;6317101;28;20113;-73
2022/06/01 15:24:08;;;;;;;6.65;4.05;;;;;;;;;;6322549;28;20052;-72
2022/06/01 15:27:13;;;;;;;5.00;3.67;;;;;;;;;;6321895;28;20048;-72
2022/06/01 15:40:15;;;;;;;29.25;21.55;;;;;;;;;;6321218;28;20045;-74
2022/06/01 15:43:17;;;;;;;16.88;10.90;;;;;;;;;;6327087;28;20065;-73
2022/06/01 15:46:22;;;;;;;6.82;3.40;;;;;;;;;;6326256;28;20044;-73
2022/06/01 15:49:34;;;;;;;12.30;7.40;;;;;;;;;;6321179;28;20068;-71
2022/06/01 15:52:37;;;;;;;8.77;4.13;;;;;;;;;;6321255;28;20287;-74
2022/06/01 15:55:40;;;;;;;4.97;3.70;;;;;;;;;;6326978;28;20051;-73
2022/06/01 15:58:42;;;;;;;5.60;4.72;;;;;;;;;;6323815;28;20060;-72
2022/06/01 16:01:43;;;;;;;15.70;12.48;;;;;;;;;;6322755;28;20052;-71
2022/06/01 16:04:45;;;;;;;6.22;3.30;;;;;;;;;;6325608;28;20044;-72
2022/06/01 16:07:48;;;;;;;4.97;3.25;;;;;;;;;;6322371;28;20059;-71
2022/06/01 16:10:50;;;;;;;11.93;3.55;;;;;;;;;;6324144;28;20064;-70
2022/06/01 16:13:52;;;;;;;5.45;3.75;;;;;;;;;;6323012;28;20040;-69
2022/06/01 16:16:53;;;;;;;4.25;3.35;;;;;;;;;;6322487;28;20292;-67
2022/06/01 16:19:55;;;;;;;8.40;3.70;;;;;;;;;;6320421;28;20109;-68
2022/06/01 16:22:59;;;;;;;6.15;3.05;;;;;;;;;;6322576;28;20053;-71
2022/06/01 16:26:00;;;;;;;10.23;3.70;;;;;;;;;;6322495;28;20048;-70
2022/06/01 16:29:03;;;;;;;6.68;3.80;;;;;;;;;;6322293;28;20056;-70
2022/06/01 16:32:05;;;;;;;7.43;3.65;;;;;;;;;;6321977;28;20036;-69
2022/06/01 16:35:09;;;;;;;5.85;3.60;;;;;;;;;;6324474;28;20079;-70
2022/06/01 16:38:12;;;;;;;8.85;3.50;;;;;;;;;;6326637;27;20056;-70
2022/06/01 16:41:14;;;;;;;;;;;;;;;;;;6319102;28;20060;-71
2022/06/01 16:44:19;;;;;;;3.83;3.20;;;;;;;;;;6319821;28;19924;-70
2022/06/01 16:47:21;;;;;;;4.53;3.10;;;;;;;;;;6319896;28;20048;-70
2022/06/01 16:50:23;;;;;;;5.63;3.08;;;;;;;;;;6322076;28;20049;-70
2022/06/01 16:53:26;;;;;;;6.32;3.50;;;;;;;;;;6313806;27;20060;-70
2022/06/01 16:56:29;;;;;;;6.97;3.33;;;;;;;;;;6312276;28;20044;-70
2022/06/01 16:59:34;;;;;;;5.63;3.40;;;;;;;;;;6315379;28;20056;-69
2022/06/01 17:02:36;;;;;;;11.57;3.42;;;;;;;;;;6315452;27;20402;-70
2022/06/01 17:05:37;;;;;;;14.68;3.88;;;;;;;;;;6318144;28;20044;-70
2022/06/01 17:08:40;;;;;;;4.28;3.08;;;;;;;;;;6315080;28;20247;-70
2022/06/01 17:11:42;;;;;;;4.57;3.28;;;;;;;;;;6314286;28;20071;-70
2022/06/01 17:14:44;;;;;;;5.72;3.42;;;;;;;;;;6315458;28;20052;-70
2022/06/01 17:17:47;;;;;;;5.78;3.80;;;;;;;;;;6314514;28;20052;-71
2022/06/01 17:20:50;;;;;;;5.53;3.53;;;;;;;;;;6315499;28;20315;-70
2022/06/01 17:23:53;;;;;;;;;;;;;;;;;;6318217;28;20101;-71
2022/06/01 17:26:55;;;;;;;7.53;3.43;;;;;;;;;;6312451;27;19919;-70
2022/06/01 17:29:57;;;;;;;5.45;3.53;;;;;;;;;;6313607;27;20048;-69
2022/06/01 17:32:59;;;;;;;6.97;3.55;;;;;;;;;;6315594;28;20075;-70
2022/06/01 17:36:01;;;;;;;5.30;3.33;;;;;;;;;;6310719;28;21067;-70
2022/06/01 17:39:05;;;;;;;5.20;3.35;;;;;;;;;;6309227;28;20059;-70
2022/06/01 17:42:07;;;;;;;6.72;3.65;;;;;;;;;;6313016;28;20289;-69
2022/06/01 17:45:10;;;;;;;5.38;3.53;;;;;;;;;;6311091;28;20060;-69
2022/06/01 17:48:17;;;;;;;5.07;4.07;;;;;;;;;;6315682;28;20235;-69
2022/06/01 17:51:20;;;;;;;5.43;3.47;;;;;;;;;;6318322;28;20044;-69
2022/06/01 17:54:23;;;;;;;8.98;3.90;;;;;;;;;;6311960;28;20108;-69
2022/06/01 17:57:24;;;;;;;;;;;;;;;;;;6323660;27;20044;-68
2022/06/01 18:00:26;;;;;;;5.40;3.55;;;;;;;;;;6319230;28;19977;-69
2022/06/01 18:03:28;;;;;;;6.20;4.10;;;;;;;;;;6316245;28;20067;-68
2022/06/01 18:06:30;;;;;;;6.85;3.83;;;;;;;;;;6318053;28;20040;-69
2022/06/01 18:09:33;;;;;;;6.37;3.80;;;;;;;;;;6311051;27;20047;-70
2022/06/01 18:12:34;;;;;;;;;;;;;;;;;;6322361;28;20390;-70
2022/06/01 18:15:36;;;;;;;6.22;4.25;;;;;;;;;;6320679;28;19916;-68
2022/06/01 18:18:39;;;;;;;7.45;4.90;;;;;;;;;;6320687;28;20339;-69
2022/06/01 18:21:40;;;;;;;7.55;4.15;;;;;;;;;;6322053;28;20040;-68
2022/06/01 18:24:43;;;;;;;7.75;3.83;;;;;;;;;;6317773;28;20048;-69
2022/06/01 18:27:45;;;;;;;4.80;3.47;;;;;;;;;;6314573;28;20335;-69
2022/06/01 18:30:48;;;;;;;7.13;3.80;;;;;;;;;;6318582;28;20242;-69
2022/06/01 18:33:50;;;;;;;5.40;4.28;;;;;;;;;;6318544;28;20335;-67
2022/06/01 18:36:52;;;;;;;5.57;3.87;;;;;;;;;;6312416;28;20146;-68
2022/06/01 18:39:55;;;;;;;5.50;4.00;;;;;;;;;;6316489;28;20319;-69
2022/06/01 18:42:57;;;;;;;;;;;;;;;;;;6321583;28;20048;-69
2022/06/01 18:45:59;;;;;;;5.03;3.85;;;;;;;;;;6317522;28;19999;-70
2022/06/01 18:49:00;;;;;;;4.90;4.35;;;;;;;;;;6323188;28;20048;-69